createdAt,value
2017-12-04T00:01:19.747Z,149.60
2017-12-04T00:03:47.294Z,119.75
2017-12-04T00:06:15.620Z,142.02
2017-12-04T00:08:43.124Z,138.12
2017-12-04T00:11:11.396Z,138.90
2017-12-04T00:13:39.669Z,147.95
2017-12-04T00:16:07.194Z,147.25
2017-12-04T00:18:34.722Z,160.15
2017-12-04T00:21:02.279Z,157.60
2017-12-04T00:23:29.788Z,140.23
2017-12-04T00:25:58.814Z,161.90
2017-12-04T00:28:27.125Z,153.27
2017-12-04T00:30:54.628Z,163.40
2017-12-04T00:33:22.935Z,165.02
2017-12-04T00:35:50.455Z,181.73
2017-12-04T00:38:17.964Z,157.27
2017-12-04T00:40:45.496Z,143.87
2017-12-04T00:43:13.786Z,184.52
2017-12-04T00:45:41.343Z,175.85
2017-12-04T00:48:08.851Z,140.55
2017-12-04T00:50:36.379Z,160.60
2017-12-04T00:53:03.924Z,165.90
2017-12-04T00:55:31.451Z,169.30
2017-12-04T00:57:58.985Z,142.10
2017-12-04T01:00:26.515Z,133.32
2017-12-04T01:02:54.042Z,114.25
2017-12-04T01:05:22.328Z,86.12
2017-12-04T01:07:49.854Z,137.80
2017-12-04T01:10:17.405Z,137.73
2017-12-04T01:12:44.921Z,149.35
2017-12-04T01:15:12.452Z,179.55
2017-12-04T01:17:40.724Z,164.15
2017-12-04T01:20:09.027Z,169.65
2017-12-04T01:22:36.547Z,159.18
2017-12-04T01:25:04.853Z,171.07
2017-12-04T01:27:32.375Z,194.40
2017-12-04T01:29:59.898Z,190.00
2017-12-04T01:32:27.514Z,194.30
2017-12-04T01:34:55.783Z,177.10
2017-12-04T01:37:24.076Z,199.87
2017-12-04T01:39:51.607Z,184.57
2017-12-04T01:42:19.150Z,149.95
2017-12-04T01:44:46.656Z,170.02
2017-12-04T01:47:14.179Z,153.40
2017-12-04T01:49:41.704Z,154.48
2017-12-04T01:52:09.227Z,158.93
2017-12-04T01:54:36.761Z,140.40
2017-12-04T01:57:04.272Z,146.60
2017-12-04T01:59:31.799Z,152.70
2017-12-04T02:01:59.350Z,150.70
2017-12-04T02:04:27.623Z,181.85
2017-12-04T02:06:55.931Z,172.93
2017-12-04T02:09:23.440Z,177.73
2017-12-04T02:11:50.965Z,166.77
2017-12-04T02:14:18.481Z,164.55
2017-12-04T02:16:46.776Z,213.32
2017-12-04T02:19:14.287Z,172.48
2017-12-04T02:21:41.834Z,205.85
2017-12-04T02:24:09.348Z,216.85
2017-12-04T02:26:36.853Z,208.07
2017-12-04T02:29:04.411Z,183.82
2017-12-04T02:31:31.938Z,181.98
2017-12-04T02:33:59.464Z,179.82
2017-12-04T02:36:27.736Z,192.90
2017-12-04T02:38:56.037Z,157.65
2017-12-04T02:41:23.556Z,171.60
2017-12-04T02:43:51.064Z,175.38
2017-12-04T02:46:18.623Z,144.32
2017-12-04T02:48:46.143Z,171.87
2017-12-04T02:51:14.416Z,180.73
2017-12-04T02:53:42.728Z,171.82
2017-12-04T02:56:10.258Z,211.65
2017-12-04T02:58:38.544Z,186.98
2017-12-04T03:01:06.055Z,192.15
2017-12-04T03:03:33.602Z,175.85
2017-12-04T03:06:01.116Z,202.35
2017-12-04T03:08:28.639Z,179.68
2017-12-04T03:10:56.166Z,150.98
2017-12-04T03:13:23.663Z,173.95
2017-12-04T03:15:51.196Z,159.57
2017-12-04T03:18:18.714Z,167.68
2017-12-04T03:20:46.243Z,175.50
2017-12-04T03:23:13.769Z,157.25
2017-12-04T03:25:41.293Z,195.95
2017-12-04T03:28:08.845Z,196.73
2017-12-04T03:30:36.396Z,173.07
2017-12-04T03:33:03.947Z,192.52
2017-12-04T03:35:32.244Z,215.87
2017-12-04T03:37:59.766Z,235.43
2017-12-04T03:40:27.338Z,216.95
2017-12-04T03:42:55.631Z,202.98
2017-12-04T03:45:23.160Z,205.25
2017-12-04T03:47:50.695Z,187.25
2017-12-04T03:50:18.218Z,205.12
2017-12-04T03:52:45.754Z,226.80
2017-12-04T03:55:14.043Z,218.37
2017-12-04T03:57:41.592Z,245.55
2017-12-04T04:00:09.864Z,218.65
2017-12-04T04:02:38.159Z,224.18
2017-12-04T04:05:05.684Z,205.40
2017-12-04T04:07:33.201Z,189.87
2017-12-04T04:10:00.726Z,210.32
2017-12-04T04:12:28.244Z,219.15
2017-12-04T04:14:55.776Z,196.85
2017-12-04T04:17:23.285Z,210.38
2017-12-04T04:19:51.578Z,220.00
2017-12-04T04:22:19.104Z,186.90
2017-12-04T04:24:46.631Z,189.68
2017-12-04T04:27:14.178Z,187.93
2017-12-04T04:29:41.703Z,180.25
2017-12-04T04:32:09.980Z,191.88
2017-12-04T04:34:38.290Z,177.50
2017-12-04T04:37:05.797Z,194.07
2017-12-04T04:39:33.332Z,153.10
2017-12-04T04:42:00.854Z,166.00
2017-12-04T04:44:28.383Z,194.13
2017-12-04T04:46:56.667Z,182.20
2017-12-04T04:49:24.955Z,170.93
2017-12-04T04:51:52.506Z,186.00
2017-12-04T04:54:20.787Z,183.65
2017-12-04T04:56:48.323Z,202.48
2017-12-04T04:59:16.634Z,168.20
2017-12-04T05:01:44.149Z,158.25
2017-12-04T05:04:11.675Z,167.35
2017-12-04T05:06:39.198Z,166.25
2017-12-04T05:09:06.709Z,160.05
2017-12-04T05:11:34.264Z,183.62
2017-12-04T05:14:01.768Z,174.32
2017-12-04T05:16:29.319Z,164.48
2017-12-04T05:18:57.596Z,193.80
2017-12-04T05:21:25.120Z,186.10
2017-12-04T05:23:52.645Z,195.70
2017-12-04T05:26:20.167Z,193.15
2017-12-04T05:28:48.603Z,174.50
2017-12-04T05:31:16.127Z,202.60
2017-12-04T05:33:43.670Z,186.43
2017-12-04T05:36:11.959Z,174.23
2017-12-04T05:38:39.567Z,183.75
2017-12-04T05:41:07.106Z,159.15
2017-12-04T05:43:34.631Z,183.15
2017-12-04T05:46:02.171Z,179.87
2017-12-04T05:48:30.458Z,183.12
2017-12-04T05:50:58.835Z,181.85
2017-12-04T05:53:26.326Z,198.45
2017-12-04T05:55:53.833Z,179.93
2017-12-04T05:58:22.164Z,165.50
2017-12-04T06:00:49.695Z,179.10
2017-12-04T06:03:17.228Z,161.85
2017-12-04T06:05:45.522Z,195.02
2017-12-04T06:08:13.792Z,203.07
2017-12-04T06:10:42.095Z,190.55
2017-12-04T06:13:09.614Z,158.10
2017-12-04T06:15:37.141Z,160.02
2017-12-04T06:18:04.662Z,192.45
2017-12-04T06:20:32.205Z,163.15
2017-12-04T06:23:00.490Z,169.95
2017-12-04T06:25:27.997Z,167.48
2017-12-04T06:27:55.529Z,164.82
2017-12-04T06:30:23.032Z,168.02
2017-12-04T06:32:50.575Z,159.87
2017-12-04T06:35:18.103Z,165.10
2017-12-04T06:37:45.646Z,182.95
2017-12-04T06:40:13.161Z,207.32
2017-12-04T06:42:40.712Z,171.73
2017-12-04T06:45:08.245Z,189.27
2017-12-04T06:47:35.779Z,206.87
2017-12-04T06:50:03.328Z,166.40
2017-12-04T06:52:31.618Z,167.70
2017-12-04T06:54:59.172Z,181.27
2017-12-04T06:57:26.676Z,161.37
2017-12-04T06:59:54.202Z,173.25
2017-12-04T07:02:21.747Z,170.90
2017-12-04T07:04:49.364Z,146.10
2017-12-04T07:07:17.670Z,154.68
2017-12-04T07:09:45.954Z,172.32
2017-12-04T07:12:14.242Z,139.23
2017-12-04T07:14:41.767Z,144.37
2017-12-04T07:17:10.068Z,152.40
2017-12-04T07:19:38.340Z,157.02
2017-12-04T07:22:06.689Z,159.70
2017-12-04T07:24:34.216Z,143.62
2017-12-04T07:27:01.725Z,140.50
2017-12-04T07:29:30.044Z,143.90
2017-12-04T07:31:57.547Z,143.13
2017-12-04T07:34:25.075Z,160.40
2017-12-04T07:36:52.623Z,173.85
2017-12-04T07:39:20.124Z,117.03
2017-12-04T07:41:47.683Z,132.07
2017-12-04T07:44:15.193Z,133.05
2017-12-04T07:46:42.723Z,127.82
2017-12-04T07:49:11.016Z,148.25
2017-12-04T07:51:38.524Z,123.32
2017-12-04T07:54:06.074Z,140.82
2017-12-04T07:56:33.589Z,129.18
2017-12-04T07:59:01.111Z,142.68
2017-12-04T08:01:28.636Z,126.32
2017-12-04T08:03:56.163Z,119.13
2017-12-04T08:06:23.695Z,161.50
2017-12-04T08:08:51.982Z,152.18
2017-12-04T08:11:20.272Z,141.65
2017-12-04T08:13:47.798Z,144.77
2017-12-04T08:16:15.339Z,152.65
2017-12-04T08:18:42.858Z,127.57
2017-12-04T08:21:10.378Z,121.85
2017-12-04T08:23:37.909Z,117.22
2017-12-04T08:26:05.420Z,103.97
2017-12-04T08:28:32.968Z,118.70
2017-12-04T08:31:01.240Z,113.37
2017-12-04T08:33:29.550Z,99.70
2017-12-04T08:35:57.077Z,101.55
2017-12-04T08:38:25.373Z,95.85
2017-12-04T08:40:52.921Z,117.15
2017-12-04T08:43:20.455Z,103.47
2017-12-04T08:45:47.988Z,100.03
2017-12-04T08:48:15.517Z,88.28
2017-12-04T08:50:43.044Z,89.10
2017-12-04T08:53:11.333Z,84.05
2017-12-04T08:55:38.854Z,85.45
2017-12-04T08:58:06.390Z,84.22
2017-12-04T09:00:33.916Z,95.12
2017-12-04T09:03:01.452Z,85.60
2017-12-04T09:05:29.747Z,73.00
2017-12-04T09:07:57.266Z,91.37
2017-12-04T09:10:24.815Z,74.95
2017-12-04T09:12:52.315Z,70.97
2017-12-04T09:15:20.604Z,77.32
2017-12-04T09:17:48.132Z,108.53
2017-12-04T09:20:16.424Z,66.87
2017-12-04T09:22:44.758Z,74.22
2017-12-04T09:25:12.291Z,76.80
2017-12-04T09:27:39.854Z,76.97
2017-12-04T09:30:07.356Z,84.95
2017-12-04T09:32:34.898Z,64.87
2017-12-04T09:35:02.419Z,97.80
2017-12-04T09:37:29.946Z,59.35
2017-12-04T09:39:58.250Z,53.65
2017-12-04T09:42:25.760Z,68.80
2017-12-04T09:44:53.306Z,60.47
2017-12-04T09:47:20.803Z,55.20
2017-12-04T09:49:49.103Z,72.50
2017-12-04T09:52:16.646Z,63.40
2017-12-04T09:54:44.161Z,58.55
2017-12-04T09:57:11.695Z,54.17
2017-12-04T09:59:39.210Z,50.38
2017-12-04T10:02:07.520Z,57.92
2017-12-04T10:04:35.042Z,58.75
2017-12-04T10:07:03.312Z,50.88
2017-12-04T10:09:31.601Z,41.10
2017-12-04T10:11:59.887Z,57.83
2017-12-04T10:14:27.429Z,70.10
2017-12-04T10:16:55.724Z,49.95
2017-12-04T10:19:23.428Z,36.17
2017-12-04T10:21:50.967Z,51.58
2017-12-04T10:24:18.476Z,44.13
2017-12-04T10:26:46.775Z,50.78
2017-12-04T10:29:14.304Z,31.05
2017-12-04T10:31:42.630Z,40.83
2017-12-04T10:34:10.140Z,32.00
2017-12-04T10:36:38.439Z,29.83
2017-12-04T10:39:05.982Z,29.42
2017-12-04T10:41:34.248Z,31.85
2017-12-04T10:44:01.803Z,29.70
2017-12-04T10:46:29.327Z,22.42
2017-12-04T10:48:56.851Z,17.12
2017-12-04T10:51:24.387Z,21.73
2017-12-04T10:53:52.665Z,26.70
2017-12-04T10:56:20.963Z,25.37
2017-12-04T10:58:48.473Z,25.45
2017-12-04T11:01:15.979Z,22.42
2017-12-04T11:03:43.500Z,18.95
2017-12-04T11:06:11.008Z,18.23
2017-12-04T11:08:38.567Z,29.27
2017-12-04T11:11:06.089Z,19.33
2017-12-04T11:13:34.379Z,20.42
2017-12-04T11:16:01.928Z,21.83
2017-12-04T11:18:30.223Z,27.50
2017-12-04T11:20:57.773Z,29.58
2017-12-04T11:23:25.280Z,26.42
2017-12-04T11:25:52.783Z,32.58
2017-12-04T11:28:21.175Z,31.65
2017-12-04T11:30:48.700Z,36.22
2017-12-04T11:33:16.252Z,32.40
2017-12-04T11:35:43.778Z,30.58
2017-12-04T11:38:11.284Z,32.00
2017-12-04T11:40:39.590Z,23.25
2017-12-04T11:43:07.113Z,37.17
2017-12-04T11:45:34.647Z,32.45
2017-12-04T11:48:02.170Z,26.20
2017-12-04T11:50:29.686Z,31.10
2017-12-04T11:52:57.204Z,29.40
2017-12-04T11:55:24.712Z,25.42
2017-12-04T11:57:53.008Z,22.02
2017-12-04T12:00:20.513Z,27.55
2017-12-04T12:02:48.039Z,26.12
2017-12-04T12:05:15.568Z,18.25
2017-12-04T12:07:43.840Z,21.85
2017-12-04T12:10:12.154Z,18.25
2017-12-04T12:12:39.668Z,15.55
2017-12-04T12:15:07.182Z,21.62
2017-12-04T12:17:34.705Z,15.02
2017-12-04T12:20:02.994Z,14.60
2017-12-04T12:22:31.291Z,22.42
2017-12-04T12:24:58.816Z,18.65
2017-12-04T12:27:27.103Z,15.30
2017-12-04T12:29:55.416Z,20.27
2017-12-04T12:32:22.920Z,15.05
2017-12-04T12:34:50.430Z,8.25
2017-12-04T12:37:17.982Z,20.25
2017-12-04T12:39:45.506Z,16.75
2017-12-04T12:42:13.803Z,20.35
2017-12-04T12:44:42.114Z,30.65
2017-12-04T12:47:09.625Z,20.70
2017-12-04T12:49:37.155Z,18.73
2017-12-04T12:52:04.707Z,23.15
2017-12-04T12:54:32.230Z,16.67
2017-12-04T12:56:59.754Z,19.52
2017-12-04T12:59:27.319Z,20.10
2017-12-04T13:01:54.851Z,28.50
2017-12-04T13:04:22.397Z,33.80
2017-12-04T13:06:49.937Z,25.77
2017-12-04T13:09:17.459Z,31.60
2017-12-04T13:11:44.966Z,20.17
2017-12-04T13:14:12.518Z,29.10
2017-12-04T13:16:40.038Z,19.67
2017-12-04T13:19:07.552Z,15.82
2017-12-04T13:21:35.092Z,23.35
2017-12-04T13:24:02.596Z,20.42
2017-12-04T13:26:30.109Z,18.55
2017-12-04T13:28:57.659Z,19.15
2017-12-04T13:31:25.192Z,27.65
2017-12-04T13:34:04.647Z,21.90
2017-12-04T13:36:44.688Z,28.15
2017-12-04T13:39:12.993Z,19.35
2017-12-04T13:41:40.504Z,20.12
2017-12-04T13:44:08.016Z,24.57
2017-12-04T13:46:35.552Z,19.20
2017-12-04T13:49:03.072Z,16.85
2017-12-04T13:51:30.613Z,17.75
2017-12-04T13:53:58.175Z,19.48
2017-12-04T13:56:25.688Z,29.55
2017-12-04T13:58:53.244Z,17.02
2017-12-04T14:01:21.563Z,14.70
2017-12-04T14:03:49.087Z,23.40
2017-12-04T14:06:16.650Z,21.33
2017-12-04T14:08:44.193Z,15.55
2017-12-04T14:11:12.483Z,18.60
2017-12-04T14:13:40.758Z,22.87
2017-12-04T14:16:09.087Z,16.52
2017-12-04T14:18:36.614Z,21.00
2017-12-04T14:21:04.113Z,24.00
2017-12-04T14:23:31.695Z,27.42
2017-12-04T14:25:59.222Z,23.92
2017-12-04T14:28:26.761Z,20.42
2017-12-04T14:30:54.265Z,26.55
2017-12-04T14:33:21.790Z,22.83
2017-12-04T14:35:49.335Z,16.58
2017-12-04T14:38:16.853Z,17.50
2017-12-04T14:40:45.142Z,16.58
2017-12-04T14:43:13.454Z,21.65
2017-12-04T14:45:41.114Z,12.95
2017-12-04T14:48:08.635Z,15.63
2017-12-04T14:50:36.971Z,10.98
2017-12-04T14:53:04.488Z,13.30
2017-12-04T14:55:32.011Z,8.82
2017-12-04T14:57:59.543Z,15.43
2017-12-04T15:00:27.067Z,10.60
2017-12-04T15:02:54.572Z,13.82
2017-12-04T15:05:22.100Z,12.52
2017-12-04T15:07:49.615Z,14.48
2017-12-04T15:10:17.885Z,7.97
2017-12-04T15:12:46.277Z,14.07
2017-12-04T15:15:14.575Z,18.95
2017-12-04T15:17:42.944Z,19.62
2017-12-04T15:20:11.252Z,17.83
2017-12-04T15:22:38.756Z,13.57
2017-12-04T15:25:06.260Z,16.90
2017-12-04T15:27:33.820Z,50.20
2017-12-04T15:30:01.376Z,16.30
2017-12-04T15:32:28.875Z,10.55
2017-12-04T15:34:56.403Z,24.45
2017-12-04T15:37:24.072Z,23.12
2017-12-04T15:39:51.596Z,43.60
2017-12-04T15:42:19.915Z,25.17
2017-12-04T15:44:47.442Z,27.85
2017-12-04T15:47:15.725Z,74.82
2017-12-04T15:49:44.020Z,17.08
2017-12-04T15:52:11.545Z,36.97
2017-12-04T15:54:39.839Z,23.35
2017-12-04T15:57:08.128Z,34.60
2017-12-04T15:59:35.659Z,34.42
2017-12-04T16:02:03.177Z,24.00
2017-12-04T16:04:30.748Z,27.20
2017-12-04T16:06:58.274Z,31.23
2017-12-04T16:09:25.780Z,62.40
2017-12-04T16:11:53.316Z,36.60
2017-12-04T16:14:20.829Z,24.55
2017-12-04T16:16:49.239Z,35.92
2017-12-04T16:19:16.787Z,22.02
2017-12-04T16:21:44.292Z,26.05
2017-12-04T16:24:11.838Z,48.50
2017-12-04T16:26:39.367Z,29.83
2017-12-04T16:29:06.934Z,36.58
2017-12-04T16:31:34.448Z,36.03
2017-12-04T16:34:01.994Z,37.45
2017-12-04T16:36:29.695Z,28.70
2017-12-04T16:38:57.199Z,26.52
2017-12-04T16:41:24.747Z,25.55
2017-12-04T16:43:52.271Z,26.50
2017-12-04T16:46:19.776Z,27.30
2017-12-04T16:48:47.339Z,20.37
2017-12-04T16:51:14.859Z,26.45
2017-12-04T16:53:42.378Z,21.58
2017-12-04T16:56:09.904Z,17.30
2017-12-04T16:58:37.404Z,15.55
2017-12-04T17:01:05.698Z,35.72
2017-12-04T17:03:33.239Z,46.10
2017-12-04T17:06:00.767Z,20.50
2017-12-04T17:08:28.401Z,30.37
2017-12-04T17:10:55.977Z,21.40
2017-12-04T17:13:23.519Z,35.20
2017-12-04T17:15:51.029Z,25.05
2017-12-04T17:18:18.560Z,26.83
2017-12-04T17:20:46.112Z,32.40
2017-12-04T17:23:13.631Z,28.92
2017-12-04T17:25:42.047Z,29.95
2017-12-04T17:28:09.605Z,22.98
2017-12-04T17:30:37.136Z,28.33
2017-12-04T17:33:05.419Z,30.83
2017-12-04T17:35:32.936Z,24.42
2017-12-04T17:38:01.220Z,30.12
2017-12-04T17:40:28.721Z,27.27
2017-12-04T17:42:56.315Z,22.87
2017-12-04T17:45:23.839Z,45.22
2017-12-04T17:47:51.371Z,26.67
2017-12-04T17:50:19.656Z,29.58
2017-12-04T17:52:48.687Z,29.17
2017-12-04T17:55:16.220Z,48.87
2017-12-04T17:57:43.763Z,26.02
2017-12-04T18:03:01.647Z,42.08
2017-12-04T18:05:29.143Z,31.37
2017-12-04T18:07:56.656Z,30.37
2017-12-04T18:10:24.175Z,31.50
2017-12-04T18:12:51.674Z,39.28
2017-12-04T18:15:19.195Z,40.88
2017-12-04T18:17:46.724Z,34.67
2017-12-04T18:20:14.273Z,48.63
2017-12-04T18:22:41.794Z,41.00
2017-12-04T18:25:10.078Z,32.50
2017-12-04T18:27:38.376Z,49.08
2017-12-04T18:30:05.875Z,41.03
2017-12-04T18:32:33.398Z,47.42
2017-12-04T18:35:00.937Z,58.38
2017-12-04T18:37:29.221Z,48.42
2017-12-04T18:39:57.501Z,40.58
2017-12-04T18:42:25.814Z,57.72
2017-12-04T18:44:53.320Z,47.92
2017-12-04T18:47:21.603Z,51.45
2017-12-04T18:49:49.896Z,46.78
2017-12-04T18:52:17.408Z,48.30
2017-12-04T18:54:44.927Z,46.30
2017-12-04T18:57:12.465Z,45.65
2017-12-04T18:59:40.750Z,62.03
2017-12-04T19:02:09.041Z,54.42
2017-12-04T19:04:36.558Z,57.15
2017-12-04T19:07:04.060Z,53.80
2017-12-04T19:09:31.652Z,46.90
2017-12-04T19:11:59.166Z,49.15
2017-12-04T19:14:26.686Z,66.45
2017-12-04T19:16:54.218Z,67.70
2017-12-04T19:19:21.723Z,68.15
2017-12-04T19:21:49.991Z,50.67
2017-12-04T19:24:17.513Z,53.65
2017-12-04T19:26:45.035Z,42.80
2017-12-04T19:29:12.549Z,64.70
2017-12-04T19:31:40.068Z,56.72
2017-12-04T19:34:07.571Z,73.30
2017-12-04T19:36:35.111Z,41.42
2017-12-04T19:39:02.634Z,59.10
2017-12-04T19:41:30.182Z,50.88
2017-12-04T19:43:57.705Z,54.53
2017-12-04T19:46:25.227Z,58.70
2017-12-04T19:48:52.774Z,44.47
2017-12-04T19:51:20.352Z,49.03
2017-12-04T19:53:47.870Z,63.05
2017-12-04T19:56:16.163Z,53.58
2017-12-04T19:58:44.447Z,51.03
2017-12-04T20:01:11.971Z,53.53
2017-12-04T20:03:40.287Z,60.95
2017-12-04T20:06:07.866Z,67.47
2017-12-04T20:08:35.411Z,58.25
2017-12-04T20:11:02.911Z,45.38
2017-12-04T20:13:30.421Z,62.62
2017-12-04T20:15:57.956Z,70.62
2017-12-04T20:18:26.246Z,54.33
2017-12-04T20:20:54.515Z,66.05
2017-12-04T20:23:22.823Z,57.42
2017-12-04T20:25:50.342Z,77.03
2017-12-04T20:28:19.619Z,71.12
2017-12-04T20:30:47.144Z,67.18
2017-12-04T20:33:14.643Z,66.80
2017-12-04T20:35:42.166Z,80.28
2017-12-04T20:38:09.714Z,60.95
2017-12-04T20:40:37.230Z,63.90
2017-12-04T20:43:04.750Z,66.00
2017-12-04T20:45:32.292Z,63.30
2017-12-04T20:47:59.792Z,66.10
2017-12-04T20:50:27.319Z,68.75
2017-12-04T20:52:54.819Z,63.72
2017-12-04T20:55:22.378Z,67.80
2017-12-04T20:57:49.895Z,80.93
2017-12-04T21:00:17.666Z,78.05
2017-12-04T21:02:45.191Z,76.85
2017-12-04T21:05:13.800Z,83.45
2017-12-04T21:07:50.297Z,74.85
2017-12-04T21:10:29.736Z,58.87
2017-12-04T21:13:09.243Z,59.80
2017-12-04T21:15:46.187Z,69.22
2017-12-04T21:18:14.494Z,63.85
2017-12-04T21:20:42.012Z,64.43
2017-12-04T21:23:09.516Z,66.68
2017-12-04T21:25:37.053Z,68.57
2017-12-04T21:28:05.334Z,53.87
2017-12-04T21:30:32.858Z,65.32
2017-12-04T21:33:00.383Z,72.47
2017-12-04T21:35:27.894Z,66.25
2017-12-04T21:37:56.191Z,56.90
2017-12-04T21:40:23.731Z,77.07
2017-12-04T21:42:52.014Z,61.40
2017-12-04T21:45:20.293Z,54.05
2017-12-04T21:47:47.839Z,64.47
2017-12-04T21:50:16.112Z,62.47
2017-12-04T21:52:44.379Z,60.35
2017-12-04T21:55:11.933Z,65.75
2017-12-04T21:57:40.222Z,60.30
2017-12-04T22:00:08.494Z,80.90
2017-12-04T22:02:36.832Z,58.00
2017-12-04T22:05:04.349Z,63.85
2017-12-04T22:07:32.606Z,50.88
2017-12-04T22:10:00.925Z,67.70
2017-12-04T22:12:28.423Z,82.10
2017-12-04T22:14:55.943Z,63.50
2017-12-04T22:17:23.475Z,61.45
2017-12-04T22:19:51.766Z,63.95
2017-12-04T22:22:19.268Z,60.10
2017-12-04T22:24:46.812Z,58.25
2017-12-04T22:27:14.316Z,70.62
2017-12-04T22:29:41.834Z,62.53
2017-12-04T22:32:09.355Z,58.95
2017-12-04T22:34:37.642Z,65.22
2017-12-04T22:37:05.186Z,63.67
2017-12-04T22:39:33.465Z,65.15
2017-12-04T22:42:01.774Z,52.67
2017-12-04T22:44:29.333Z,88.90
2017-12-04T22:46:56.865Z,72.62
2017-12-04T22:49:25.149Z,72.30
2017-12-04T22:51:52.695Z,89.82
2017-12-04T22:54:20.990Z,69.07
2017-12-04T22:56:48.487Z,95.97
2017-12-04T22:59:16.015Z,69.50
2017-12-04T23:01:43.538Z,71.55
2017-12-04T23:04:11.803Z,77.05
2017-12-04T23:06:39.358Z,89.68
2017-12-04T23:09:06.855Z,91.10
2017-12-04T23:11:34.368Z,85.62
2017-12-04T23:14:01.922Z,93.30
2017-12-04T23:16:29.442Z,71.15
2017-12-04T23:18:56.943Z,53.65
2017-12-04T23:21:24.464Z,72.82
2017-12-04T23:23:51.972Z,69.00
2017-12-04T23:26:19.522Z,65.47
2017-12-04T23:28:47.018Z,74.15
2017-12-04T23:31:14.541Z,84.87
2017-12-04T23:33:42.089Z,66.62
2017-12-04T23:36:09.591Z,83.62
2017-12-04T23:38:37.871Z,70.30
2017-12-04T23:41:05.407Z,76.10
2017-12-04T23:43:32.934Z,80.25
2017-12-04T23:46:00.435Z,73.85
2017-12-04T23:48:28.741Z,104.70
2017-12-04T23:50:56.253Z,86.97
2017-12-04T23:53:23.783Z,78.05
2017-12-04T23:55:51.284Z,67.75
2017-12-04T23:58:19.580Z,71.72
